Time;durP1;ratioP1;P1;durP2;ratioP2;P2;SDS_P1;SDS_P2;PMS_P1;PMS_P2;Temp;Humidity;BMP_temperature;BMP_pressure;BME280_temperature;BME280_humidity;BME280_pressure;Samples;Min_cycle;Max_cycle;Signal;HPM_P1;HPM_P2
2023/11/09 00:01:10;;;;;;;;;;;;;;;16.82;46.77;100896.00;5091788;28;1000;-41
2023/11/09 00:03:36;;;;;;;;;;;;;;;16.63;46.18;100901.97;5086312;28;1003;-43
2023/11/09 00:06:02;;;;;;;;;;;;;;;16.56;45.42;100915.13;5096369;28;1144;-47
2023/11/09 00:08:30;;;;;;;;;;;;;;;16.47;44.67;100914.84;5086020;28;1212;-45
2023/11/09 00:10:59;;;;;;;;;;;;;;;16.44;44.32;100926.38;5083358;28;1983;-42
2023/11/09 00:13:25;;;;;;;;;;;;;;;16.32;44.03;100918.34;5089085;28;1114;-41
2023/11/09 00:15:51;;;;;;;;;;;;;;;16.23;44.01;100934.50;5077768;28;1077;-45
2023/11/09 00:18:21;;;;;;;;;;;;;;;16.18;43.72;100934.47;5084405;28;1178;-45
2023/11/09 00:20:50;;;;;;;;;;;;;;;16.92;45.79;100926.25;5093431;28;1069;-45
2023/11/09 00:23:15;;;;;;;;;;;;;;;16.95;47.00;100919.38;5088217;28;1130;-47
2023/11/09 00:25:41;;;;;;;;;;;;;;;16.61;46.77;100931.63;5077600;28;2519;-41
2023/11/09 00:28:07;;;;;;;;;;;;;;;16.47;45.59;100939.56;5077213;28;1113;-45
2023/11/09 00:30:32;;;;;;;;;;;;;;;16.40;44.92;100928.00;5082180;28;1984;-42
2023/11/09 00:32:58;;;;;;;;;;;;;;;16.38;44.24;100933.75;5086884;28;1073;-44
2023/11/09 00:35:23;;;;;;;;;;;;;;;16.72;45.85;100940.75;5080898;28;1192;-41
2023/11/09 00:37:50;;;;;;;;;;;;;;;17.22;47.05;100944.69;5087366;28;1182;-46
2023/11/09 00:40:15;;;;;;;;;;;;;;;16.75;46.93;100953.91;5097934;28;1167;-46
2023/11/09 00:42:41;;;;;;;;;;;;;;;16.59;45.94;100937.41;5096728;28;1045;-42
2023/11/09 00:45:07;;;;;;;;;;;;;;;16.38;45.28;100933.75;5063099;28;1094;-41
2023/11/09 00:47:32;;;;;;;;;;;;;;;17.03;46.43;100941.66;5086929;28;1197;-43
2023/11/09 00:49:58;;;;;;;;;;;;;;;16.83;47.19;100944.31;5083640;28;1906;-46
2023/11/09 00:52:24;;;;;;;;;;;;;;;16.67;46.29;100929.72;5087630;28;1089;-43
2023/11/09 00:54:51;;;;;;;;;;;;;;;16.56;45.15;100940.69;5067830;28;1838;-41
2023/11/09 00:57:16;;;;;;;;;;;;;;;16.41;44.65;100943.34;5097380;28;1019;-41
2023/11/09 00:59:46;;;;;;;;;;;;;;;17.26;46.84;100953.19;5080216;28;1158;-43
2023/11/09 01:02:12;;;;;;;;;;;;;;;16.82;46.75;100970.16;5076914;28;1070;-45
2023/11/09 01:04:37;;;;;;;;;;;;;;;16.74;45.82;100976.97;5080029;28;1114;-42
2023/11/09 01:07:04;;;;;;;;;;;;;;;16.52;45.11;100977.16;5090904;28;1048;-46
2023/11/09 01:09:30;;;;;;;;;;;;;;;16.45;44.69;100982.06;5090119;28;1173;-45
2023/11/09 01:11:56;;;;;;;;;;;;;;;16.40;44.26;100977.41;5086134;28;1886;-42
2023/11/09 01:14:21;;;;;;;;;;;;;;;16.32;44.00;100975.16;5080409;28;1014;-47
2023/11/09 01:16:47;;;;;;;;;;;;;;;16.24;43.94;100973.75;5076708;28;1054;-41
2023/11/09 01:19:13;;;;;;;;;;;;;;;16.98;45.82;100976.53;5081259;28;996;-45
2023/11/09 01:21:38;;;;;;;;;;;;;;;16.59;45.83;100978.59;5087252;28;994;-45
2023/11/09 01:24:04;;;;;;;;;;;;;;;16.31;45.37;100977.06;5076589;28;2365;-43
2023/11/09 01:26:30;;;;;;;;;;;;;;;16.37;44.72;100981.50;5058543;28;1043;-46
2023/11/09 01:28:55;;;;;;;;;;;;;;;16.24;44.54;100990.19;5079105;28;996;-44
2023/11/09 01:31:21;;;;;;;;;;;;;;;16.24;44.15;101003.91;5090083;28;1976;-42
2023/11/09 01:33:47;;;;;;;;;;;;;;;16.89;45.92;101020.19;5074137;28;1501;-46
2023/11/09 01:36:15;;;;;;;;;;;;;;;16.79;46.87;101033.81;5087154;28;1153;-44
2023/11/09 01:38:42;;;;;;;;;;;;;;;16.55;45.85;101037.00;5074630;28;1147;-45
2023/11/09 01:41:08;;;;;;;;;;;;;;;16.41;45.28;101025.69;5086536;28;1057;-45
2023/11/09 01:43:34;;;;;;;;;;;;;;;16.27;44.78;101025.38;5064454;28;2019;-41
2023/11/09 01:46:04;;;;;;;;;;;;;;;16.28;44.20;101024.25;5068197;28;1288;-44
2023/11/09 01:48:30;;;;;;;;;;;;;;;17.07;45.94;101032.59;5075249;28;1211;-43
2023/11/09 01:50:56;;;;;;;;;;;;;;;16.74;46.09;101031.91;5067234;28;1906;-44
2023/11/09 01:53:22;;;;;;;;;;;;;;;16.47;45.84;101037.56;5061718;28;1082;-42
2023/11/09 01:55:48;;;;;;;;;;;;;;;16.60;45.70;101023.31;5061423;28;2485;-45
2023/11/09 01:58:14;;;;;;;;;;;;;;;16.88;46.51;101016.59;5071258;28;885;-41
2023/11/09 02:00:41;;;;;;;;;;;;;;;16.64;46.05;101026.38;5052955;28;1080;-43
2023/11/09 02:03:06;;;;;;;;;;;;;;;16.51;45.33;101022.16;5047790;28;1094;-40
2023/11/09 02:05:34;;;;;;;;;;;;;;;16.33;44.98;101024.28;5067186;28;1299;-43
2023/11/09 02:07:59;;;;;;;;;;;;;;;16.71;45.64;101033.25;5087556;28;1030;-45
2023/11/09 02:10:25;;;;;;;;;;;;;;;17.36;46.94;101041.19;5084747;28;1917;-46
2023/11/09 02:12:50;;;;;;;;;;;;;;;16.81;47.03;101035.22;5075767;28;1045;-41
2023/11/09 02:15:16;;;;;;;;;;;;;;;16.64;45.89;101045.59;5075909;28;1032;-42
2023/11/09 02:17:41;;;;;;;;;;;;;;;16.53;45.33;101034.53;5089515;28;1159;-45
2023/11/09 02:20:08;;;;;;;;;;;;;;;16.41;44.97;101029.28;5084242;28;999;-44
2023/11/09 02:22:33;;;;;;;;;;;;;;;16.39;44.36;101027.88;5082351;28;1209;-43
2023/11/09 02:24:59;;;;;;;;;;;;;;;16.29;44.47;101023.16;5065463;28;2714;-45
2023/11/09 02:27:24;;;;;;;;;;;;;;;16.87;45.88;101022.31;5074234;28;1203;-44
2023/11/09 02:29:50;;;;;;;;;;;;;;;16.54;45.91;101013.44;5095537;28;1894;-44
2023/11/09 02:32:17;;;;;;;;;;;;;;;16.43;44.95;101016.09;5067269;28;1289;-44
2023/11/09 02:34:43;;;;;;;;;;;;;;;16.79;46.06;101020.94;5071400;28;1209;-42
2023/11/09 02:37:09;;;;;;;;;;;;;;;16.97;47.12;101033.41;5083024;28;1122;-42
2023/11/09 02:39:35;;;;;;;;;;;;;;;16.71;46.42;101030.50;5079482;28;1027;-42
2023/11/09 02:42:00;;;;;;;;;;;;;;;16.56;45.50;101035.94;5064977;28;1120;-41
2023/11/09 02:44:26;;;;;;;;;;;;;;;16.46;44.98;101033.16;5099360;28;811;-41
2023/11/09 02:46:52;;;;;;;;;;;;;;;16.34;44.61;101039.66;5100018;28;1074;-42
2023/11/09 02:49:18;;;;;;;;;;;;;;;16.22;44.34;101030.81;5071265;28;1134;-44
2023/11/09 02:51:44;;;;;;;;;;;;;;;17.02;45.87;101041.63;5092531;28;1980;-47
2023/11/09 02:54:09;;;;;;;;;;;;;;;16.92;47.20;101047.09;5079348;28;1922;-43
2023/11/09 02:56:36;;;;;;;;;;;;;;;16.65;46.25;101048.06;5067403;28;2189;-44
2023/11/09 02:59:02;;;;;;;;;;;;;;;16.51;45.64;101046.88;5094899;28;1138;-48
2023/11/09 03:01:28;;;;;;;;;;;;;;;16.97;46.39;101060.88;5097447;28;1177;-43
2023/11/09 03:03:54;;;;;;;;;;;;;;;16.95;47.11;101063.03;5071600;28;1381;-45
2023/11/09 03:06:20;;;;;;;;;;;;;;;16.59;46.23;101049.13;5095466;28;1011;-45
2023/11/09 03:08:46;;;;;;;;;;;;;;;16.56;45.46;101055.16;5090006;28;945;-46
2023/11/09 03:11:11;;;;;;;;;;;;;;;16.41;44.75;101059.47;5098736;28;1906;-41
2023/11/09 03:13:39;;;;;;;;;;;;;;;16.37;44.37;101063.84;5070991;28;1234;-44
2023/11/09 03:16:08;;;;;;;;;;;;;;;17.21;46.10;101065.88;5079102;28;1078;-46
2023/11/09 03:18:34;;;;;;;;;;;;;;;16.82;46.50;101071.75;5079073;28;1070;-42
2023/11/09 03:21:00;;;;;;;;;;;;;;;16.58;45.86;101077.69;5087300;28;1157;-44
2023/11/09 03:23:26;;;;;;;;;;;;;;;17.10;46.49;101085.06;5089435;28;1049;-41
2023/11/09 03:25:55;;;;;;;;;;;;;;;17.00;47.24;101082.31;5082536;28;2493;-44
2023/11/09 03:28:20;;;;;;;;;;;;;;;16.69;46.67;101093.13;5099082;28;1049;-40
2023/11/09 03:30:46;;;;;;;;;;;;;;;16.63;45.70;101083.19;5085454;28;1985;-42
2023/11/09 03:33:11;;;;;;;;;;;;;;;16.55;45.03;101089.19;5077692;28;1268;-42
2023/11/09 03:35:37;;;;;;;;;;;;;;;16.40;44.63;101096.22;5094740;28;1161;-43
2023/11/09 03:38:03;;;;;;;;;;;;;;;16.40;44.28;101101.72;5078555;28;1011;-44
2023/11/09 03:40:29;;;;;;;;;;;;;;;16.34;43.93;101096.47;5095941;28;1077;-45
2023/11/09 03:42:55;;;;;;;;;;;;;;;16.22;43.85;101093.91;5087377;28;1115;-43
2023/11/09 03:45:20;;;;;;;;;;;;;;;16.24;43.53;101094.47;5066654;28;2023;-45
2023/11/09 03:47:46;;;;;;;;;;;;;;;16.13;43.52;101096.34;5087451;28;994;-44
2023/11/09 03:50:12;;;;;;;;;;;;;;;16.19;43.80;101095.25;5095869;28;1974;-45
2023/11/09 03:52:38;;;;;;;;;;;;;;;17.23;46.23;101102.16;5097557;28;1129;-42
2023/11/09 03:55:04;;;;;;;;;;;;;;;16.62;46.54;101100.78;5089497;28;1839;-46
2023/11/09 03:57:30;;;;;;;;;;;;;;;16.36;45.73;101102.53;5094142;28;895;-43
2023/11/09 03:59:55;;;;;;;;;;;;;;;16.29;45.35;101101.94;5084682;28;1146;-44
2023/11/09 04:02:21;;;;;;;;;;;;;;;16.19;44.90;101102.69;5086746;28;1109;-46
2023/11/09 04:04:46;;;;;;;;;;;;;;;16.23;44.15;101112.84;5095907;28;1160;-43
2023/11/09 04:07:12;;;;;;;;;;;;;;;16.95;46.03;101130.91;5097915;28;1062;-42
2023/11/09 04:09:38;;;;;;;;;;;;;;;17.09;47.05;101123.81;5082316;28;1050;-44
2023/11/09 04:12:04;;;;;;;;;;;;;;;16.64;46.88;101123.28;5078195;28;1909;-41
2023/11/09 04:14:30;;;;;;;;;;;;;;;16.53;45.88;101127.06;5082042;28;1189;-47
2023/11/09 04:16:55;;;;;;;;;;;;;;;16.47;45.31;101125.38;5087277;28;1134;-45
2023/11/09 04:19:21;;;;;;;;;;;;;;;16.36;44.80;101127.22;5091086;28;1027;-41
2023/11/09 04:21:49;;;;;;;;;;;;;;;16.35;44.40;101131.88;5092462;28;903;-44
2023/11/09 04:24:14;;;;;;;;;;;;;;;16.21;44.11;101136.16;5084270;28;2361;-43
2023/11/09 04:26:42;;;;;;;;;;;;;;;16.16;43.80;101139.69;5097509;28;1046;-49
2023/11/09 04:29:10;;;;;;;;;;;;;;;16.06;43.83;101145.94;5079791;28;999;-45
2023/11/09 04:31:37;;;;;;;;;;;;;;;16.06;43.57;101145.06;5089551;28;1964;-46
2023/11/09 04:34:08;;;;;;;;;;;;;;;17.06;45.85;101158.13;5085355;28;1041;-48
2023/11/09 04:36:42;;;;;;;;;;;;;;;16.63;46.52;101160.06;5084689;28;1053;-44
2023/11/09 04:39:08;;;;;;;;;;;;;;;16.36;45.79;101160.97;5084724;28;1043;-45
2023/11/09 04:41:33;;;;;;;;;;;;;;;16.31;44.99;101162.84;5084281;28;1241;-47
2023/11/09 04:43:59;;;;;;;;;;;;;;;16.23;44.74;101166.91;5089925;28;1064;-44
2023/11/09 04:46:24;;;;;;;;;;;;;;;16.10;44.28;101167.34;5090477;28;935;-49
2023/11/09 04:48:55;;;;;;;;;;;;;;;16.29;44.63;101174.09;5097567;28;1003;-44
2023/11/09 04:51:22;;;;;;;;;;;;;;;17.07;46.31;101178.22;5083227;28;1971;-47
2023/11/09 04:53:56;;;;;;;;;;;;;;;16.62;46.41;101185.88;5077259;28;1892;-46
2023/11/09 05:07:18;;;;;;;;;;;;;;;16.40;45.84;101197.78;5095952;28;1169;-50
2023/11/09 05:09:47;;;;;;;;;;;;;;;17.08;46.51;101201.84;5089292;28;1018;-49
2023/11/09 05:12:15;;;;;;;;;;;;;;;16.67;46.35;101218.84;5096970;28;1094;-48
2023/11/09 05:14:40;;;;;;;;;;;;;;;16.40;45.77;101208.75;5077454;28;1050;-47
2023/11/09 05:17:06;;;;;;;;;;;;;;;16.45;44.90;101218.13;5076846;28;1152;-46
2023/11/09 05:19:31;;;;;;;;;;;;;;;16.33;44.38;101224.63;5095001;28;1019;-49
2023/11/09 05:21:57;;;;;;;;;;;;;;;16.51;45.27;101225.31;5080235;28;1632;-46
2023/11/09 05:24:23;;;;;;;;;;;;;;;17.30;46.48;101233.84;5091847;28;1871;-45
2023/11/09 05:26:50;;;;;;;;;;;;;;;16.76;46.51;101231.00;5091765;28;1154;-48
2023/11/09 05:29:16;;;;;;;;;;;;;;;16.55;46.00;101240.16;5086883;28;1335;-45
2023/11/09 05:31:44;;;;;;;;;;;;;;;16.87;46.14;101237.41;5089658;28;1984;-53
2023/11/09 05:34:10;;;;;;;;;;;;;;;16.70;46.57;101232.03;5084337;28;838;-48
2023/11/09 05:36:35;;;;;;;;;;;;;;;16.47;47.28;101254.41;5082884;28;1122;-49
2023/11/09 05:39:04;;;;;;;;;;;;;;;16.29;48.03;101250.13;5078419;28;1133;-44
2023/11/09 05:41:29;;;;;;;;;;;;;;;16.13;48.43;101260.09;5088172;28;1117;-54
2023/11/09 05:43:56;;;;;;;;;;;;;;;16.25;48.32;101269.81;5095810;28;1006;-49
2023/11/09 05:46:21;;;;;;;;;;;;;;;16.91;46.96;101266.03;5081255;28;931;-48
2023/11/09 05:48:48;;;;;;;;;;;;;;;16.40;48.63;101271.91;5080920;28;1042;-48
2023/11/09 05:51:20;;;;;;;;;;;;;;;16.21;49.10;101273.34;5078481;28;1972;-45
2023/11/09 05:53:47;;;;;;;;;;;;;;;16.20;49.34;101274.44;5076516;28;2340;-47
2023/11/09 05:56:13;;;;;;;;;;;;;;;17.22;47.02;101276.38;5089259;28;1162;-44
2023/11/09 05:58:38;;;;;;;;;;;;;;;16.48;48.85;101280.75;5092106;28;883;-43
2023/11/09 06:01:04;;;;;;;;;;;;;;;16.17;49.81;101288.66;5082826;28;1085;-43
2023/11/09 06:03:29;;;;;;;;;;;;;;;16.08;49.97;101291.88;5095690;28;1035;-53
2023/11/09 06:05:55;;;;;;;;;;;;;;;17.08;48.14;101298.00;5082221;28;1154;-48
2023/11/09 06:08:20;;;;;;;;;;;;;;;16.65;49.05;101294.34;5095048;28;1190;-49
2023/11/09 06:10:49;;;;;;;;;;;;;;;16.29;49.80;101297.59;5078407;28;1906;-48
2023/11/09 06:13:15;;;;;;;;;;;;;;;16.14;50.46;101308.41;5075738;28;1003;-48
2023/11/09 06:15:41;;;;;;;;;;;;;;;16.00;50.54;101314.28;5075652;28;1091;-47
2023/11/09 06:18:08;;;;;;;;;;;;;;;17.17;48.20;101320.34;5075629;28;1089;-47
2023/11/09 06:20:34;;;;;;;;;;;;;;;16.64;49.35;101320.97;5081616;28;1078;-49
2023/11/09 06:22:59;;;;;;;;;;;;;;;16.25;50.35;101318.41;5077386;28;969;-48
2023/11/09 06:25:25;;;;;;;;;;;;;;;16.14;50.69;101327.59;5081790;28;2229;-48
2023/11/09 06:27:51;;;;;;;;;;;;;;;17.01;49.04;101322.13;5082766;28;1002;-49
2023/11/09 06:30:16;;;;;;;;;;;;;;;16.74;49.60;101329.28;5088988;28;1901;-49
2023/11/09 06:32:42;;;;;;;;;;;;;;;16.32;50.45;101330.00;5087312;28;1008;-49
2023/11/09 06:35:13;;;;;;;;;;;;;;;16.14;50.95;101319.38;5082097;28;1162;-46
2023/11/09 06:37:39;;;;;;;;;;;;;;;16.90;49.52;101323.97;5084646;28;1289;-48
2023/11/09 06:40:10;;;;;;;;;;;;;;;16.70;49.71;101336.41;5081877;28;1128;-47
2023/11/09 06:42:39;;;;;;;;;;;;;;;16.36;50.63;101342.13;5089977;28;1142;-46
2023/11/09 06:45:05;;;;;;;;;;;;;;;16.17;50.88;101340.81;5095050;28;996;-51
2023/11/09 06:47:30;;;;;;;;;;;;;;;16.17;51.38;101344.41;5075623;28;1042;-46
2023/11/09 06:49:56;;;;;;;;;;;;;;;17.33;48.43;101333.06;5083480;28;1905;-54
2023/11/09 06:52:21;;;;;;;;;;;;;;;16.56;50.27;101333.28;5095102;28;1034;-49
2023/11/09 06:54:47;;;;;;;;;;;;;;;16.33;50.80;101342.63;5084956;28;2562;-48
2023/11/09 06:57:13;;;;;;;;;;;;;;;16.13;51.52;101343.25;5076000;28;1088;-49
2023/11/09 06:59:38;;;;;;;;;;;;;;;16.06;51.55;101343.44;5095429;28;1034;-55
2023/11/09 07:02:04;;;;;;;;;;;;;;;15.92;51.75;101353.13;5081520;28;994;-52
2023/11/09 07:04:30;;;;;;;;;;;;;;;17.15;49.08;101347.25;5095457;28;1106;-47
2023/11/09 07:06:57;;;;;;;;;;;;;;;16.57;50.37;101364.28;5094889;28;1161;-48
2023/11/09 07:09:23;;;;;;;;;;;;;;;16.24;51.23;101350.50;5095095;28;1174;-46
2023/11/09 07:11:52;;;;;;;;;;;;;;;16.92;49.89;101357.50;5095678;28;1986;-48
2023/11/09 07:14:23;;;;;;;;;;;;;;;16.81;50.00;101363.97;5095096;28;1057;-48
2023/11/09 07:16:54;;;;;;;;;;;;;;;16.41;51.27;101366.03;5079167;28;998;-44
2023/11/09 07:19:21;;;;;;;;;;;;;;;16.43;51.28;101364.69;5089308;28;983;-48
2023/11/09 07:21:46;;;;;;;;;;;;;;;17.22;49.21;101370.69;5087589;28;1078;-49
2023/11/09 07:24:13;;;;;;;;;;;;;;;16.58;50.78;101376.94;5096644;28;2413;-45
2023/11/09 07:26:40;;;;;;;;;;;;;;;16.33;51.31;101374.75;5091095;28;1093;-50
2023/11/09 07:29:05;;;;;;;;;;;;;;;16.26;51.78;101388.66;5087684;28;1011;-46
2023/11/09 07:31:30;;;;;;;;;;;;;;;17.36;49.34;101376.56;5099024;28;1917;-44
2023/11/09 07:33:56;;;;;;;;;;;;;;;16.74;50.62;101386.16;5093797;28;1042;-43
2023/11/09 07:36:21;;;;;;;;;;;;;;;16.46;51.20;101379.81;5080417;28;1046;-48
2023/11/09 07:38:47;;;;;;;;;;;;;;;16.31;51.77;101379.66;5099419;28;1169;-45
2023/11/09 07:41:14;;;;;;;;;;;;;;;16.14;52.00;101382.47;5097372;28;1027;-48
2023/11/09 07:43:39;;;;;;;;;;;;;;;16.00;52.34;101382.84;5086969;28;1015;-44
2023/11/09 07:46:05;;;;;;;;;;;;;;;15.95;52.35;101385.53;5087177;28;1041;-44
2023/11/09 07:48:30;;;;;;;;;;;;;;;16.85;50.85;101392.56;5086835;28;1253;-45
2023/11/09 07:50:56;;;;;;;;;;;;;;;17.29;49.50;101386.91;5096867;28;1905;-50
2023/11/09 07:53:22;;;;;;;;;;;;;;;16.58;51.20;101394.22;5086626;28;1102;-45
2023/11/09 07:55:50;;;;;;;;;;;;;;;16.37;51.93;101401.41;5094514;28;2519;-44
2023/11/09 07:58:17;;;;;;;;;;;;;;;16.19;52.11;101385.28;5092441;28;1059;-45
2023/11/09 08:00:43;;;;;;;;;;;;;;;16.04;52.43;101399.63;5094191;28;1101;-47
2023/11/09 08:03:09;;;;;;;;;;;;;;;17.28;49.97;101401.78;5089915;28;1073;-46
2023/11/09 08:05:40;;;;;;;;;;;;;;;16.83;50.68;101405.72;5093629;28;1038;-43
2023/11/09 08:08:10;;;;;;;;;;;;;;;16.44;51.91;101403.97;5098434;28;1050;-47
2023/11/09 08:10:37;;;;;;;;;;;;;;;16.28;52.06;101399.38;5085542;28;1905;-46
2023/11/09 08:13:02;;;;;;;;;;;;;;;16.11;52.45;101411.25;5088703;28;1154;-49
2023/11/09 08:15:28;;;;;;;;;;;;;;;16.06;52.36;101414.75;5081196;28;1038;-47
2023/11/09 08:17:53;;;;;;;;;;;;;;;16.39;51.83;101414.88;5083326;28;1121;-46
2023/11/09 08:20:19;;;;;;;;;;;;;;;17.16;50.24;101414.84;5097751;28;1229;-45
2023/11/09 08:22:45;;;;;;;;;;;;;;;16.52;51.82;101417.25;5096992;28;1182;-47
2023/11/09 08:25:12;;;;;;;;;;;;;;;16.32;52.07;101417.81;5075781;28;1835;-49
2023/11/09 08:27:38;;;;;;;;;;;;;;;16.19;52.25;101424.53;5097299;28;1260;-45
2023/11/09 08:30:07;;;;;;;;;;;;;;;16.65;51.56;101420.66;5096420;28;1982;-47
2023/11/09 08:32:33;;;;;;;;;;;;;;;17.31;49.86;101417.72;5094372;28;1123;-47
2023/11/09 08:34:58;;;;;;;;;;;;;;;16.60;51.63;101422.25;5096583;28;1283;-48
2023/11/09 08:37:24;;;;;;;;;;;;;;;16.41;51.84;101416.28;5097609;28;1304;-45
2023/11/09 08:39:51;;;;;;;;;;;;;;;16.24;52.37;101421.84;5096931;28;1304;-43
2023/11/09 08:42:19;;;;;;;;;;;;;;;16.56;51.92;101425.78;5094006;28;1343;-44
2023/11/09 08:44:45;;;;;;;;;;;;;;;17.04;50.61;101426.00;5093476;28;1315;-47
2023/11/09 08:47:11;;;;;;;;;;;;;;;16.57;51.72;101432.94;5090141;28;1370;-47
2023/11/09 08:49:37;;;;;;;;;;;;;;;16.38;52.03;101437.91;5091583;28;1299;-42
2023/11/09 08:52:04;;;;;;;;;;;;;;;16.20;52.38;101444.56;5088290;28;1989;-43
2023/11/09 08:54:30;;;;;;;;;;;;;;;16.17;52.49;101431.34;5088363;28;2367;-47
2023/11/09 08:56:56;;;;;;;;;;;;;;;16.08;52.65;101434.53;5096836;28;1252;-49
2023/11/09 08:59:24;;;;;;;;;;;;;;;17.30;50.42;101426.25;5091889;28;1284;-48
2023/11/09 09:01:52;;;;;;;;;;;;;;;16.64;51.70;101425.31;5083736;28;1054;-47
2023/11/09 09:04:18;;;;;;;;;;;;;;;16.33;52.44;101419.47;5096958;28;1033;-45
2023/11/09 09:06:43;;;;;;;;;;;;;;;16.25;52.64;101430.91;5091453;28;1336;-46
2023/11/09 09:09:15;;;;;;;;;;;;;;;16.15;52.94;101431.59;5097590;28;1003;-48
2023/11/09 09:11:40;;;;;;;;;;;;;;;16.88;51.27;101425.00;5082771;28;1910;-43
2023/11/09 09:14:08;;;;;;;;;;;;;;;16.84;51.53;101423.88;5080906;28;1256;-44
2023/11/09 09:16:36;;;;;;;;;;;;;;;16.48;52.54;101428.97;5091790;28;1265;-44
2023/11/09 09:19:01;;;;;;;;;;;;;;;16.27;52.77;101434.25;5076978;28;1146;-46
2023/11/09 09:21:27;;;;;;;;;;;;;;;16.16;52.99;101430.53;5076589;28;1066;-47
2023/11/09 09:23:53;;;;;;;;;;;;;;;16.05;53.12;101435.03;5087050;28;1778;-48
2023/11/09 09:26:18;;;;;;;;;;;;;;;15.99;53.26;101430.59;5089682;28;1119;-46
2023/11/09 09:28:51;;;;;;;;;;;;;;;17.36;50.47;101428.78;5090316;28;1200;-45
2023/11/09 09:31:18;;;;;;;;;;;;;;;16.86;51.51;101428.03;5090308;28;1909;-49
2023/11/09 09:33:46;;;;;;;;;;;;;;;16.45;52.67;101426.75;5076129;28;1026;-45
2023/11/09 09:36:12;;;;;;;;;;;;;;;16.31;52.70;101426.31;5071997;28;1446;-41
2023/11/09 09:38:38;;;;;;;;;;;;;;;16.20;52.92;101422.59;5089562;28;1061;-43
2023/11/09 09:41:06;;;;;;;;;;;;;;;16.39;52.65;101423.94;5089654;28;1107;-40
2023/11/09 09:43:33;;;;;;;;;;;;;;;17.21;51.04;101428.66;5094336;28;1322;-43
2023/11/09 09:45:58;;;;;;;;;;;;;;;16.60;52.25;101424.19;5078419;28;1335;-42
2023/11/09 09:48:25;;;;;;;;;;;;;;;16.35;52.77;101425.53;5074776;28;1343;-44
2023/11/09 09:50:52;;;;;;;;;;;;;;;16.21;53.17;101427.00;5090345;28;1910;-44
2023/11/09 09:53:24;;;;;;;;;;;;;;;16.96;51.66;101430.06;5090029;28;1228;-45
2023/11/09 09:55:50;;;;;;;;;;;;;;;16.96;51.55;101421.84;5089038;28;1899;-45
2023/11/09 09:58:15;;;;;;;;;;;;;;;16.52;52.64;101420.00;5089407;28;1303;-41
2023/11/09 10:00:41;;;;;;;;;;;;;;;16.34;52.96;101423.03;5083772;28;1315;-43
2023/11/09 10:03:06;;;;;;;;;;;;;;;16.20;53.24;101426.19;5084831;28;1121;-46
2023/11/09 10:05:33;;;;;;;;;;;;;;;16.12;53.25;101423.03;5075694;28;1074;-38
2023/11/09 10:08:05;;;;;;;;;;;;;;;17.01;51.61;101424.63;5090681;28;1296;-43
2023/11/09 10:10:34;;;;;;;;;;;;;;;16.92;51.60;101423.44;5089658;28;1968;-43
2023/11/09 10:13:00;;;;;;;;;;;;;;;16.49;52.68;101420.47;5094722;28;958;-42
2023/11/09 10:15:26;;;;;;;;;;;;;;;16.34;53.16;101421.16;5082898;28;1106;-41
2023/11/09 10:17:52;;;;;;;;;;;;;;;16.19;53.14;101412.72;5095741;28;1046;-43
2023/11/09 10:20:18;;;;;;;;;;;;;;;16.07;53.22;101432.91;5095181;28;1284;-42
2023/11/09 10:22:47;;;;;;;;;;;;;;;16.43;52.91;101416.03;5078800;28;1485;-40
2023/11/09 10:25:13;;;;;;;;;;;;;;;17.49;50.36;101422.00;5064760;28;2468;-43
2023/11/09 10:27:38;;;;;;;;;;;;;;;16.72;52.25;101422.13;5092787;28;1133;-42
2023/11/09 10:30:06;;;;;;;;;;;;;;;16.46;53.05;101426.50;5086993;28;1959;-48
2023/11/09 10:32:35;;;;;;;;;;;;;;;16.28;52.98;101418.59;5094467;28;1078;-47
2023/11/09 10:35:01;;;;;;;;;;;;;;;16.17;53.13;101423.13;5082192;28;1111;-42
2023/11/09 10:37:29;;;;;;;;;;;;;;;16.93;52.00;101425.91;5075823;28;1027;-40
2023/11/09 10:39:54;;;;;;;;;;;;;;;16.96;51.66;101427.31;5076036;28;1039;-44
2023/11/09 10:42:24;;;;;;;;;;;;;;;16.56;52.51;101423.03;5075547;28;1108;-44
2023/11/09 10:44:52;;;;;;;;;;;;;;;16.32;53.16;101426.06;5067942;28;1016;-48
2023/11/09 10:47:18;;;;;;;;;;;;;;;16.20;53.12;101430.84;5091817;28;1110;-48
2023/11/09 10:49:44;;;;;;;;;;;;;;;16.10;53.37;101425.22;5064508;28;1419;-46
2023/11/09 10:52:10;;;;;;;;;;;;;;;17.35;51.10;101423.50;5075285;28;1917;-48
2023/11/09 10:54:36;;;;;;;;;;;;;;;16.69;52.52;101432.78;5092327;28;1776;-48
2023/11/09 10:57:01;;;;;;;;;;;;;;;16.39;53.24;101421.19;5092268;28;1181;-46
2023/11/09 10:59:28;;;;;;;;;;;;;;;16.29;53.41;101423.81;5080503;28;1098;-44
2023/11/09 11:01:57;;;;;;;;;;;;;;;16.12;53.41;101428.53;5081171;28;1102;-48
2023/11/09 11:04:25;;;;;;;;;;;;;;;16.90;52.33;101422.84;5097023;28;1133;-45
2023/11/09 11:06:50;;;;;;;;;;;;;;;16.92;51.92;101424.25;5070890;28;1051;-47
2023/11/09 11:09:19;;;;;;;;;;;;;;;16.49;53.06;101430.63;5065578;28;1109;-47
2023/11/09 11:11:47;;;;;;;;;;;;;;;16.31;53.37;101437.28;5061730;28;1913;-49
2023/11/09 11:14:14;;;;;;;;;;;;;;;16.15;53.72;101436.28;5064554;28;1008;-48
2023/11/09 11:16:46;;;;;;;;;;;;;;;16.32;53.39;101431.53;5088513;28;1420;-45
2023/11/09 11:19:37;;;;;;;;;;;;;;;17.18;51.46;101434.66;5096383;28;1004;-49
2023/11/09 11:22:22;;;;;;;;;;;;;;;16.53;53.19;101434.53;5095482;28;1389;-48
2023/11/09 11:25:14;;;;;;;;;;;;;;;16.29;53.56;101429.31;5095673;28;2353;-47
2023/11/09 11:27:54;;;;;;;;;;;;;;;16.19;53.46;101430.00;5092387;28;998;-47
2023/11/09 11:30:25;;;;;;;;;;;;;;;16.76;52.77;101433.44;5097446;28;1979;-51
2023/11/09 11:32:51;;;;;;;;;;;;;;;16.88;52.24;101436.00;5099022;28;1133;-50
2023/11/09 11:35:39;;;;;;;;;;;;;;;16.43;53.48;101438.81;5085090;28;1100;-48
2023/11/09 11:38:05;;;;;;;;;;;;;;;16.24;53.35;101441.06;5078776;28;1185;-48
2023/11/09 11:40:33;;;;;;;;;;;;;;;17.13;51.81;101440.13;5088157;28;1115;-48
2023/11/09 11:42:59;;;;;;;;;;;;;;;16.80;52.50;101444.72;5098695;28;1029;-48
2023/11/09 11:45:24;;;;;;;;;;;;;;;16.52;52.97;101450.19;5090823;28;1323;-42
2023/11/09 11:47:50;;;;;;;;;;;;;;;16.31;53.37;101437.28;5093188;28;1019;-40
2023/11/09 11:50:16;;;;;;;;;;;;;;;16.18;53.56;101444.00;5077587;28;1910;-42
2023/11/09 11:52:46;;;;;;;;;;;;;;;16.74;52.80;101441.91;5078558;28;1143;-44
2023/11/09 11:55:13;;;;;;;;;;;;;;;17.19;51.68;101439.06;5080528;28;1859;-42
2023/11/09 11:57:57;;;;;;;;;;;;;;;16.60;53.00;101440.66;5098635;28;1022;-42
2023/11/09 12:00:22;;;;;;;;;;;;;;;16.37;53.36;101450.81;5090480;28;1067;-46
2023/11/09 12:02:52;;;;;;;;;;;;;;;16.25;53.69;101448.19;5069756;28;1427;-45
2023/11/09 12:05:17;;;;;;;;;;;;;;;16.13;53.65;101443.91;5096989;28;1353;-44
2023/11/09 12:07:43;;;;;;;;;;;;;;;16.07;53.75;101438.38;5087730;28;1296;-43
2023/11/09 12:10:16;;;;;;;;;;;;;;;15.94;54.03;101448.88;5080318;28;1982;-42
2023/11/09 12:12:42;;;;;;;;;;;;;;;16.95;52.75;101452.31;5079704;28;859;-43
2023/11/09 12:15:08;;;;;;;;;;;;;;;16.69;53.11;101454.75;5075312;28;1193;-44
2023/11/09 12:17:34;;;;;;;;;;;;;;;16.37;53.74;101458.25;5094630;28;1268;-41
2023/11/09 12:20:04;;;;;;;;;;;;;;;16.21;53.80;101448.97;5092032;28;1354;-47
2023/11/09 12:22:33;;;;;;;;;;;;;;;16.14;54.29;101456.56;5096419;28;1296;-45
2023/11/09 12:25:02;;;;;;;;;;;;;;;17.35;51.58;101446.34;5081304;28;2318;-48
2023/11/09 12:27:27;;;;;;;;;;;;;;;16.67;53.01;101437.72;5086936;28;976;-44
2023/11/09 12:29:53;;;;;;;;;;;;;;;16.39;53.48;101437.66;5094546;28;1260;-45
2023/11/09 12:32:18;;;;;;;;;;;;;;;16.24;53.71;101443.81;5096239;28;1914;-43
2023/11/09 12:34:44;;;;;;;;;;;;;;;16.15;53.84;101444.50;5092936;28;1328;-43
2023/11/09 12:37:13;;;;;;;;;;;;;;;16.00;54.10;101448.69;5088962;28;1335;-41
2023/11/09 12:39:42;;;;;;;;;;;;;;;16.32;53.68;101445.25;5080366;28;1066;-41
2023/11/09 12:42:11;;;;;;;;;;;;;;;17.24;51.93;101444.63;5097145;28;1123;-45
2023/11/09 12:44:42;;;;;;;;;;;;;;;16.54;53.69;101447.19;5092787;28;1252;-46
2023/11/09 12:47:11;;;;;;;;;;;;;;;16.28;53.93;101444.09;5094579;28;1291;-48
2023/11/09 12:49:38;;;;;;;;;;;;;;;17.01;52.88;101443.88;5093626;28;1256;-47
2023/11/09 12:52:06;;;;;;;;;;;;;;;16.90;52.79;101442.94;5086969;28;1914;-45
2023/11/09 12:54:33;;;;;;;;;;;;;;;16.52;53.58;101444.69;5093468;28;2350;-43
2023/11/09 12:57:01;;;;;;;;;;;;;;;16.35;53.70;101447.50;5091730;28;1315;-45